createdAt,value
2023-02-15T00:00:23.703Z,-1.80
2023-02-15T00:02:52.465Z,-1.80
2023-02-15T00:05:23.081Z,-1.90
2023-02-15T00:07:51.989Z,-1.30
2023-02-15T00:10:20.907Z,-1.00
2023-02-15T00:12:49.970Z,-2.00
2023-02-15T00:15:19.023Z,-2.00
2023-02-15T00:17:48.025Z,-2.00
2023-02-15T00:20:17.425Z,-2.20
2023-02-15T00:22:47.887Z,-2.00
2023-02-15T00:25:16.703Z,-2.10
2023-02-15T00:27:45.796Z,-2.20
2023-02-15T00:30:15.236Z,-1.80
2023-02-15T00:32:44.568Z,-2.20
2023-02-15T00:35:14.438Z,-2.20
2023-02-15T00:37:44.153Z,-2.20
2023-02-15T00:40:14.880Z,-2.10
2023-02-15T00:42:44.340Z,-2.10
2023-02-15T00:45:13.800Z,-0.30
2023-02-15T00:47:42.794Z,-2.10
2023-02-15T00:50:12.885Z,-1.50
2023-02-15T00:52:41.624Z,-2.40
2023-02-15T00:55:10.644Z,-2.10
2023-02-15T00:57:41.864Z,-1.00
2023-02-15T01:00:12.053Z,-2.40
2023-02-15T01:02:41.053Z,-2.40
2023-02-15T01:05:10.386Z,-2.20
2023-02-15T01:07:39.591Z,-1.60
2023-02-15T01:10:10.392Z,-2.30
2023-02-15T01:12:41.038Z,-2.40
2023-02-15T01:15:10.814Z,-2.50
2023-02-15T01:17:39.905Z,-2.60
2023-02-15T01:20:10.598Z,-2.70
2023-02-15T01:22:39.183Z,-2.70
2023-02-15T01:25:09.253Z,-2.70
2023-02-15T01:27:38.577Z,-2.80
2023-02-15T01:30:12.587Z,-2.80
2023-02-15T01:32:42.306Z,-2.90
2023-02-15T01:35:12.296Z,-2.80
2023-02-15T01:37:41.404Z,-2.80
2023-02-15T01:40:14.942Z,-2.30
2023-02-15T01:42:46.962Z,-2.90
2023-02-15T01:45:25.525Z,-2.00
2023-02-15T01:47:59.489Z,-3.10
2023-02-15T01:50:33.062Z,-2.20
2023-02-15T01:53:06.384Z,-3.00
2023-02-15T01:55:40.014Z,-3.00
2023-02-15T01:58:10.282Z,-2.20
2023-02-15T02:00:40.952Z,-2.10
2023-02-15T02:03:10.208Z,-3.10
2023-02-15T02:05:40.755Z,-2.60
2023-02-15T02:08:11.422Z,-3.10
2023-02-15T02:10:40.870Z,-2.40
2023-02-15T02:13:10.352Z,-2.60
2023-02-15T02:15:50.329Z,-3.20
2023-02-15T02:18:33.606Z,-2.50
2023-02-15T02:21:30.284Z,-2.80
2023-02-15T02:24:15.616Z,-3.00
2023-02-15T02:27:23.619Z,-2.90
2023-02-15T02:30:25.400Z,-2.90
2023-02-15T02:33:26.171Z,-2.90
2023-02-15T02:36:05.517Z,-2.90
2023-02-15T02:38:45.279Z,-2.60
2023-02-15T02:41:21.184Z,-2.70
2023-02-15T02:43:57.699Z,-1.30
2023-02-15T02:46:33.247Z,-2.60
2023-02-15T02:49:04.881Z,-2.80
2023-02-15T02:51:35.144Z,-2.70
2023-02-15T02:54:08.244Z,-2.80
2023-02-15T02:56:43.622Z,-2.90
2023-02-15T02:59:15.723Z,-2.90
2023-02-15T03:01:49.640Z,-2.00
2023-02-15T03:04:21.577Z,-1.90
2023-02-15T03:06:56.340Z,-2.90
2023-02-15T03:09:35.908Z,-2.90
2023-02-15T03:12:06.696Z,-2.70
2023-02-15T03:14:43.211Z,-2.90
2023-02-15T03:17:15.649Z,-1.50
2023-02-15T03:19:48.852Z,-2.90
2023-02-15T03:22:24.554Z,-2.90
2023-02-15T03:24:59.244Z,-2.90
2023-02-15T03:27:33.584Z,-2.20
2023-02-15T03:30:07.434Z,-1.90
2023-02-15T03:32:40.082Z,-2.80
2023-02-15T03:35:09.877Z,-2.00
2023-02-15T03:37:43.609Z,-2.40
2023-02-15T03:40:37.918Z,-2.90
2023-02-15T03:43:13.919Z,-2.80
2023-02-15T03:45:55.920Z,-2.90
2023-02-15T03:48:29.393Z,-2.90
2023-02-15T03:51:21.781Z,-2.70
2023-02-15T03:53:54.169Z,-1.70
2023-02-15T03:56:23.339Z,-1.70
2023-02-15T03:59:09.544Z,-1.90
2023-02-15T04:01:59.537Z,-2.70
2023-02-15T04:04:35.169Z,-1.70
2023-02-15T04:07:06.246Z,-2.70
2023-02-15T04:09:53.828Z,-2.40
2023-02-15T04:12:23.584Z,-1.30
2023-02-15T04:15:09.907Z,-2.40
2023-02-15T04:17:39.110Z,-1.10
2023-02-15T04:20:27.600Z,-1.80
2023-02-15T04:23:14.024Z,-2.40
2023-02-15T04:25:44.676Z,-2.10
2023-02-15T04:28:13.793Z,-2.40
2023-02-15T04:30:42.691Z,-1.80
2023-02-15T04:33:12.204Z,-2.30
2023-02-15T04:35:42.877Z,-1.70
2023-02-15T04:38:12.531Z,-1.50
2023-02-15T04:40:44.350Z,-1.50
2023-02-15T04:43:13.903Z,-2.30
2023-02-15T04:45:43.215Z,-1.40
2023-02-15T04:48:12.373Z,-1.70
2023-02-15T04:50:41.154Z,-2.40
2023-02-15T04:53:10.258Z,-2.40
2023-02-15T04:55:39.663Z,-2.20
2023-02-15T04:58:10.277Z,-1.80
2023-02-15T05:00:39.601Z,-2.50
2023-02-15T05:03:08.726Z,-2.50
2023-02-15T05:05:37.954Z,-2.50
2023-02-15T05:08:06.939Z,-2.00
2023-02-15T05:10:36.297Z,-2.30
2023-02-15T05:13:05.728Z,-1.70
2023-02-15T05:15:36.739Z,-2.00
2023-02-15T05:18:07.607Z,-2.00
2023-02-15T05:20:37.237Z,-2.40
2023-02-15T05:23:06.515Z,-2.50
2023-02-15T05:25:52.734Z,-2.00
2023-02-15T05:28:22.203Z,-2.40
2023-02-15T05:30:54.823Z,-1.80
2023-02-15T05:33:26.155Z,-1.60
2023-02-15T05:35:56.422Z,-2.00
2023-02-15T05:38:26.436Z,-1.50
2023-02-15T05:40:57.760Z,-2.50
2023-02-15T05:43:27.262Z,-2.60
2023-02-15T05:46:01.453Z,-1.50
2023-02-15T05:48:31.674Z,-2.50
2023-02-15T05:51:02.175Z,-2.70
2023-02-15T05:53:32.960Z,-2.60
2023-02-15T05:56:04.660Z,-2.10
2023-02-15T05:58:36.497Z,-1.80
2023-02-15T06:01:13.039Z,-2.70
2023-02-15T06:03:42.749Z,-2.20
2023-02-15T06:06:11.845Z,-2.70
2023-02-15T06:08:41.349Z,-2.50
2023-02-15T06:11:10.910Z,-1.70
2023-02-15T06:13:39.657Z,-2.30
2023-02-15T06:16:09.077Z,-2.70
2023-02-15T06:18:39.610Z,-1.90
2023-02-15T06:21:08.383Z,-2.60
2023-02-15T06:23:39.306Z,-2.20
2023-02-15T06:26:08.555Z,-2.30
2023-02-15T06:28:38.581Z,-2.20
2023-02-15T06:31:08.030Z,-2.50
2023-02-15T06:33:37.332Z,-2.20
2023-02-15T06:36:09.036Z,-2.40
2023-02-15T06:38:39.188Z,-2.30
2023-02-15T06:41:08.284Z,-1.60
2023-02-15T06:43:40.684Z,-2.10
2023-02-15T06:46:10.869Z,-2.00
2023-02-15T06:48:41.180Z,-1.90
2023-02-15T06:51:12.336Z,-2.00
2023-02-15T06:53:45.542Z,-1.90
2023-02-15T06:56:18.345Z,-1.80
2023-02-15T06:58:50.577Z,-1.80
2023-02-15T07:01:21.072Z,-1.70
2023-02-15T07:04:17.391Z,-1.60
2023-02-15T07:06:48.719Z,-1.60
2023-02-15T07:09:18.692Z,-1.60
2023-02-15T07:12:05.626Z,-1.50
2023-02-15T07:14:35.541Z,-1.50
2023-02-15T07:17:07.251Z,-1.40
2023-02-15T07:19:37.147Z,-1.20
2023-02-15T07:22:08.264Z,-1.00
2023-02-15T07:24:38.760Z,-0.90
2023-02-15T07:27:09.859Z,-0.80
2023-02-15T07:29:47.092Z,-0.70
2023-02-15T07:32:16.838Z,-0.50
2023-02-15T07:35:14.593Z,-0.30
2023-02-15T07:37:46.253Z,-1.20
2023-02-15T07:40:15.943Z,0.10
2023-02-15T07:42:45.842Z,0.30
2023-02-15T07:45:15.205Z,0.40
2023-02-15T07:47:45.357Z,0.60
2023-02-15T07:50:17.917Z,0.70
2023-02-15T07:52:53.326Z,0.30
2023-02-15T07:55:23.436Z,0.90
2023-02-15T07:57:55.953Z,1.00
2023-02-15T08:00:29.623Z,1.10
2023-02-15T08:03:18.618Z,1.30
2023-02-15T08:05:50.440Z,1.40
2023-02-15T08:08:32.738Z,1.50
2023-02-15T08:11:21.450Z,0.70
2023-02-15T08:14:05.817Z,1.80
2023-02-15T08:16:38.398Z,1.90
2023-02-15T08:19:11.388Z,2.20
2023-02-15T08:21:42.864Z,2.30
2023-02-15T08:24:34.856Z,2.60
2023-02-15T08:27:07.463Z,2.80
2023-02-15T08:30:00.605Z,3.10
2023-02-15T08:32:36.297Z,3.00
2023-02-15T08:35:38.788Z,2.00
2023-02-15T08:38:10.391Z,3.30
2023-02-15T08:40:57.009Z,3.60
2023-02-15T08:43:36.694Z,4.00
2023-02-15T08:46:13.557Z,4.60
2023-02-15T08:49:27.494Z,4.90
2023-02-15T08:51:59.775Z,5.00
2023-02-15T08:54:31.552Z,5.60
2023-02-15T08:57:03.544Z,6.40
2023-02-15T08:59:33.824Z,7.40
2023-02-15T09:02:05.919Z,9.00
2023-02-15T09:04:43.096Z,10.50
2023-02-15T09:07:13.321Z,11.40
2023-02-15T09:10:09.073Z,12.20
2023-02-15T09:13:47.431Z,12.70
2023-02-15T09:16:18.220Z,13.70
2023-02-15T09:19:10.507Z,14.20
2023-02-15T09:22:06.929Z,14.20
2023-02-15T09:24:37.561Z,14.50
2023-02-15T09:27:20.608Z,15.20
2023-02-15T09:30:26.739Z,14.60
2023-02-15T09:33:01.242Z,15.00
2023-02-15T09:35:31.389Z,14.60
2023-02-15T09:38:13.759Z,15.00
2023-02-15T09:41:20.142Z,15.50
2023-02-15T09:44:20.365Z,14.40
2023-02-15T09:47:23.140Z,14.80
2023-02-15T09:50:16.992Z,14.90
2023-02-15T09:53:00.892Z,15.20
2023-02-15T09:55:42.775Z,15.40
2023-02-15T09:58:23.465Z,15.80
2023-02-15T10:01:01.907Z,15.30
2023-02-15T10:04:09.871Z,14.70
2023-02-15T10:07:07.393Z,14.20
2023-02-15T10:09:48.046Z,12.90
2023-02-15T10:12:50.805Z,15.80
2023-02-15T10:18:27.038Z,14.90
2023-02-15T10:21:40.515Z,14.50
2023-02-15T10:24:42.101Z,14.20
2023-02-15T10:31:58.008Z,14.60
2023-02-15T10:34:38.814Z,15.50
2023-02-15T10:38:00.043Z,16.00
2023-02-15T10:43:49.048Z,15.40
2023-02-15T10:46:35.394Z,16.80
2023-02-15T10:49:40.672Z,17.10
2023-02-15T10:52:24.368Z,17.30
2023-02-15T10:56:07.557Z,16.40
2023-02-15T11:03:36.011Z,17.40
2023-02-15T11:06:25.235Z,17.00
2023-02-15T11:08:59.821Z,16.00
2023-02-15T11:11:43.714Z,16.90
2023-02-15T11:14:24.677Z,16.30
2023-02-15T11:17:00.034Z,17.30
2023-02-15T11:19:34.312Z,17.40
2023-02-15T11:22:09.743Z,17.20
2023-02-15T11:27:37.596Z,18.30
2023-02-15T11:30:17.618Z,18.50
2023-02-15T11:32:50.665Z,19.10
2023-02-15T11:35:43.016Z,19.60
2023-02-15T11:38:47.901Z,19.00
2023-02-15T11:41:46.345Z,18.90
2023-02-15T11:45:06.333Z,17.50
2023-02-15T11:47:38.165Z,18.40
2023-02-15T11:50:18.161Z,18.70
2023-02-15T11:52:48.994Z,19.80
2023-02-15T11:55:24.876Z,19.20
2023-02-15T11:57:59.217Z,19.00
2023-02-15T12:00:37.675Z,18.90
2023-02-15T12:03:30.208Z,19.50
2023-02-15T12:06:04.519Z,20.60
2023-02-15T12:08:46.228Z,20.60
2023-02-15T12:11:22.289Z,19.80
2023-02-15T12:14:00.175Z,20.10
2023-02-15T12:16:32.326Z,21.10
2023-02-15T12:19:04.756Z,21.00
2023-02-15T12:22:10.789Z,20.30
2023-02-15T12:24:49.562Z,19.10
2023-02-15T12:27:21.046Z,19.60
2023-02-15T12:29:55.263Z,19.60
2023-02-15T12:32:31.936Z,20.40
2023-02-15T12:39:39.477Z,21.50
2023-02-15T12:42:45.728Z,22.60
2023-02-15T12:45:27.238Z,22.50
2023-02-15T12:48:21.052Z,22.00
2023-02-15T12:57:16.074Z,22.80
2023-02-15T12:59:57.149Z,22.60
2023-02-15T13:02:50.611Z,21.40
2023-02-15T13:05:51.266Z,21.90
2023-02-15T13:09:38.438Z,22.10
2023-02-15T13:12:31.838Z,21.50
2023-02-15T13:15:03.883Z,20.60
2023-02-15T13:27:14.631Z,21.10
2023-02-15T13:34:03.706Z,20.60
2023-02-15T13:36:42.864Z,21.20
2023-02-15T13:39:27.385Z,21.10
2023-02-15T13:42:06.313Z,21.20
2023-02-15T13:45:05.154Z,20.70
2023-02-15T13:47:42.210Z,20.70
2023-02-15T13:50:32.480Z,20.20
2023-02-15T13:53:22.108Z,20.50
2023-02-15T13:56:03.006Z,19.80
2023-02-15T13:59:05.081Z,20.00
2023-02-15T14:01:46.586Z,20.20
2023-02-15T14:04:42.727Z,19.50
2023-02-15T14:07:36.280Z,19.90
2023-02-15T14:10:34.800Z,19.60
2023-02-15T14:13:45.039Z,19.60
2023-02-15T14:16:25.022Z,18.90
2023-02-15T14:19:04.022Z,19.20
2023-02-15T14:21:38.002Z,19.10
2023-02-15T14:24:23.985Z,18.70
2023-02-15T14:26:59.697Z,19.20
2023-02-15T14:29:38.307Z,19.50
2023-02-15T14:32:13.187Z,19.00
2023-02-15T14:34:49.254Z,19.10
2023-02-15T14:37:24.233Z,19.00
2023-02-15T14:40:18.382Z,18.20
2023-02-15T14:42:57.620Z,18.00
2023-02-15T14:45:35.117Z,17.70
2023-02-15T14:48:14.168Z,17.10
2023-02-15T14:50:46.125Z,16.00
2023-02-15T14:53:25.610Z,15.20
2023-02-15T14:56:29.836Z,15.10
2023-02-15T14:59:20.814Z,14.60
2023-02-15T15:01:59.892Z,14.10
2023-02-15T15:04:33.865Z,13.60
2023-02-15T15:07:20.386Z,13.90
2023-02-15T15:10:00.344Z,13.70
2023-02-15T15:12:44.426Z,13.30
2023-02-15T15:15:35.335Z,12.50
2023-02-15T15:18:09.925Z,12.20
2023-02-15T15:20:51.871Z,12.10
2023-02-15T15:23:45.832Z,12.10
2023-02-15T15:26:37.950Z,12.00
2023-02-15T15:29:14.805Z,12.00
2023-02-15T15:31:50.741Z,11.60
2023-02-15T15:35:02.445Z,10.50
2023-02-15T15:37:59.629Z,9.40
2023-02-15T15:40:44.271Z,8.40
2023-02-15T15:43:38.604Z,7.70
2023-02-15T15:46:34.062Z,7.20
2023-02-15T15:49:05.220Z,6.80
2023-02-15T15:51:37.388Z,6.50
2023-02-15T15:54:06.678Z,6.30
2023-02-15T15:56:39.064Z,6.20
2023-02-15T15:59:10.343Z,5.90
2023-02-15T16:02:00.792Z,5.70
2023-02-15T16:04:37.222Z,5.50
2023-02-15T16:10:25.143Z,5.10
2023-02-15T16:12:55.689Z,4.70
2023-02-15T16:15:32.814Z,4.50
2023-02-15T16:18:04.428Z,4.60
2023-02-15T16:20:36.717Z,4.50
2023-02-15T16:23:20.191Z,4.50
2023-02-15T16:25:58.198Z,4.40
2023-02-15T16:28:28.010Z,4.00
2023-02-15T16:31:12.814Z,3.70
2023-02-15T16:33:46.692Z,3.80
2023-02-15T16:36:24.227Z,3.80
2023-02-15T16:39:22.070Z,3.60
2023-02-15T16:42:03.606Z,3.30
2023-02-15T16:44:34.328Z,3.20
2023-02-15T16:47:04.869Z,3.10
2023-02-15T16:49:37.964Z,3.10
2023-02-15T16:52:11.139Z,3.20
2023-02-15T16:54:44.338Z,3.00
2023-02-15T16:57:21.336Z,2.90
2023-02-15T16:59:53.049Z,2.60
2023-02-15T17:02:49.441Z,2.60
2023-02-15T17:05:22.331Z,2.80
2023-02-15T17:08:08.650Z,2.70
2023-02-15T17:10:40.511Z,2.70
2023-02-15T17:13:13.466Z,2.50
2023-02-15T17:15:44.376Z,2.40
2023-02-15T17:18:19.466Z,2.40
2023-02-15T17:20:53.320Z,2.20
2023-02-15T17:23:36.302Z,1.90
2023-02-15T17:26:17.893Z,1.70
2023-02-15T17:28:50.293Z,1.60
2023-02-15T17:31:21.767Z,1.50
2023-02-15T17:33:52.081Z,1.50
2023-02-15T17:36:25.248Z,1.40
2023-02-15T17:39:07.672Z,1.20
2023-02-15T17:41:38.527Z,1.20
2023-02-15T17:44:09.764Z,1.10
2023-02-15T17:46:40.112Z,0.90
2023-02-15T17:49:10.322Z,0.80
2023-02-15T17:51:40.912Z,0.70
2023-02-15T17:54:30.364Z,0.60
2023-02-15T17:57:05.970Z,0.50
2023-02-15T17:59:35.466Z,0.60
2023-02-15T18:02:21.636Z,0.70
2023-02-15T18:05:07.930Z,0.70
2023-02-15T18:07:56.398Z,0.60
2023-02-15T18:10:42.648Z,0.50
2023-02-15T18:13:13.780Z,0.40
2023-02-15T18:15:45.149Z,0.40
2023-02-15T18:18:15.617Z,0.60
2023-02-15T18:20:45.892Z,0.70
2023-02-15T18:23:18.770Z,0.80
2023-02-15T18:25:48.200Z,0.80
2023-02-15T18:28:18.180Z,0.70
2023-02-15T18:30:48.150Z,0.70
2023-02-15T18:33:33.127Z,0.80
2023-02-15T18:36:06.235Z,1.00
2023-02-15T18:38:37.328Z,1.10
2023-02-15T18:41:07.958Z,1.10
2023-02-15T18:43:37.374Z,-0.40
2023-02-15T18:46:06.947Z,0.90
2023-02-15T18:48:37.768Z,0.80
2023-02-15T18:51:10.377Z,0.80
2023-02-15T18:53:41.546Z,0.60
2023-02-15T18:56:15.098Z,0.50
2023-02-15T18:58:48.074Z,0.60
2023-02-15T19:01:18.473Z,0.70
2023-02-15T19:03:49.526Z,0.70
2023-02-15T19:06:22.086Z,0.60
2023-02-15T19:08:55.316Z,0.60
2023-02-15T19:11:28.484Z,0.60
2023-02-15T19:13:58.306Z,0.60
2023-02-15T19:16:33.250Z,0.60
2023-02-15T19:19:07.441Z,0.60
2023-02-15T19:21:37.284Z,0.60
2023-02-15T19:24:17.807Z,0.60
2023-02-15T19:26:58.143Z,0.70
2023-02-15T19:29:29.690Z,0.40
2023-02-15T19:32:01.548Z,0.70
2023-02-15T19:34:31.565Z,0.70
2023-02-15T19:37:04.285Z,0.70
2023-02-15T19:39:41.286Z,0.70
2023-02-15T19:42:18.622Z,0.40
2023-02-15T19:44:48.120Z,0.10
2023-02-15T19:47:17.934Z,-0.20
2023-02-15T19:49:46.916Z,-0.30
2023-02-15T19:52:20.670Z,-0.40
2023-02-15T19:54:52.046Z,-0.60
2023-02-15T19:57:22.153Z,-0.80
2023-02-15T19:59:51.516Z,-0.80
2023-02-15T20:02:22.992Z,-0.80
2023-02-15T20:04:52.503Z,-0.70
2023-02-15T20:07:28.454Z,-0.60
2023-02-15T20:10:05.029Z,-0.80
2023-02-15T20:12:35.264Z,-0.80
2023-02-15T20:15:18.431Z,-0.80
2023-02-15T20:17:49.553Z,-0.90
2023-02-15T20:20:20.403Z,-0.90
2023-02-15T20:22:52.338Z,-0.90
2023-02-15T20:25:27.842Z,-0.90
2023-02-15T20:27:59.646Z,-0.90
2023-02-15T20:30:31.787Z,-0.90
2023-02-15T20:33:01.905Z,-0.80
2023-02-15T20:35:31.744Z,-0.90
2023-02-15T20:38:03.112Z,-0.90
2023-02-15T20:40:37.709Z,-0.90
2023-02-15T20:43:19.397Z,-0.90
2023-02-15T20:45:49.567Z,-0.90
2023-02-15T20:48:19.848Z,-1.80
2023-02-15T20:50:51.468Z,-0.80
2023-02-15T20:53:22.192Z,-0.80
2023-02-15T20:55:55.181Z,-1.10
2023-02-15T20:58:27.940Z,-1.10
2023-02-15T21:00:59.159Z,-1.10
2023-02-15T21:03:31.640Z,-1.10
2023-02-15T21:06:02.365Z,-1.10
2023-02-15T21:08:32.688Z,-1.10
2023-02-15T21:11:04.203Z,-1.10
2023-02-15T21:13:36.513Z,-1.00
2023-02-15T21:16:05.743Z,-1.00
2023-02-15T21:18:38.290Z,-1.20
2023-02-15T21:21:08.787Z,-1.40
2023-02-15T21:23:41.820Z,-1.30
2023-02-15T21:26:19.557Z,-1.30
2023-02-15T21:28:50.654Z,-1.30
2023-02-15T21:31:22.191Z,-1.30
2023-02-15T21:33:53.376Z,-1.30
2023-02-15T21:36:25.602Z,-1.40
2023-02-15T21:38:57.005Z,-1.50
2023-02-15T21:41:46.826Z,-1.60
2023-02-15T21:44:38.520Z,-1.70
2023-02-15T21:47:26.024Z,-1.60
2023-02-15T21:49:56.037Z,-1.60
2023-02-15T21:52:24.641Z,-1.60
2023-02-15T21:54:54.264Z,-1.60
2023-02-15T21:57:25.288Z,-1.60
2023-02-15T21:59:54.873Z,-1.70
2023-02-15T22:02:29.913Z,-1.80
2023-02-15T22:05:01.088Z,-1.80
2023-02-15T22:07:30.707Z,-1.80
2023-02-15T22:10:00.006Z,-1.80
2023-02-15T22:12:32.657Z,-1.80
2023-02-15T22:15:03.633Z,-1.80
2023-02-15T22:17:35.044Z,-1.90
2023-02-15T22:20:13.971Z,-1.80
2023-02-15T22:22:43.861Z,-2.00
2023-02-15T22:25:16.495Z,-2.00
2023-02-15T22:27:49.746Z,-1.80
2023-02-15T22:30:25.754Z,-1.90
2023-02-15T22:32:56.304Z,-1.80
2023-02-15T22:35:28.098Z,-1.70
2023-02-15T22:38:20.438Z,-1.80
2023-02-15T22:40:52.494Z,-1.70
2023-02-15T22:43:39.988Z,-1.10
2023-02-15T22:46:15.982Z,-1.60
2023-02-15T22:48:46.535Z,-1.60
2023-02-15T22:51:16.519Z,-1.60
2023-02-15T22:53:46.134Z,-1.80
2023-02-15T22:56:22.339Z,-1.90
2023-02-15T22:58:56.715Z,-1.90
2023-02-15T23:01:31.651Z,-1.90
2023-02-15T23:04:03.368Z,-1.90
2023-02-15T23:06:36.313Z,-1.90
2023-02-15T23:09:05.745Z,-1.90
2023-02-15T23:11:35.472Z,-1.10
2023-02-15T23:14:06.565Z,-2.00
2023-02-15T23:16:36.054Z,-2.00
2023-02-15T23:19:05.141Z,-1.60
2023-02-15T23:21:36.601Z,-1.90
2023-02-15T23:24:19.560Z,-2.00
2023-02-15T23:26:49.945Z,-1.60
2023-02-15T23:29:22.632Z,-2.10
2023-02-15T23:31:54.526Z,-2.20
2023-02-15T23:34:29.579Z,-2.30
2023-02-15T23:36:59.410Z,-2.30
2023-02-15T23:39:47.216Z,-2.30
2023-02-15T23:42:20.610Z,-2.20
2023-02-15T23:44:52.221Z,-2.40
2023-02-15T23:47:44.897Z,-2.50
2023-02-15T23:50:20.147Z,-2.10
2023-02-15T23:52:50.137Z,-2.50
2023-02-15T23:55:20.193Z,-2.60
2023-02-15T23:57:50.072Z,-2.70
